Time;durP1;ratioP1;P1;durP2;ratioP2;P2;SDS_P1;SDS_P2;PMS_P1;PMS_P2;Temp;Humidity;BMP_temperature;BMP_pressure;BME280_temperature;BME280_humidity;BME280_pressure;Samples;Min_cycle;Max_cycle;Signal;HPM_P1;HPM_P2
2022/11/26 00:00:19;;;;;;;;;;;;;;;2.28;100.00;102162.88;2096662;28;37727;-73
2022/11/26 00:01:21;;;;;;;;;;;;;;;2.28;100.00;102157.59;2097065;28;20852;-73
2022/11/26 00:02:25;;;;;;;;;;;;;;;2.25;100.00;102162.78;2096480;28;39315;-73
2022/11/26 00:03:26;;;;;;;;;;;;;;;2.22;100.00;102167.97;2096657;28;30388;-73
2022/11/26 00:04:28;;;;;;;;;;;;;;;2.18;100.00;102166.09;2096658;28;36379;-73
2022/11/26 00:05:31;;;;;;;;;;;;;;;2.14;100.00;102168.59;2096302;28;36055;-73
2022/11/26 00:06:37;;;;;;;;;;;;;;;2.15;100.00;102173.00;2098963;28;19928;-73
2022/11/26 00:07:41;;;;;;;;;;;;;;;2.17;100.00;102177.50;2098393;28;31992;-73
2022/11/26 00:08:43;;;;;;;;;;;;;;;2.13;100.00;102183.53;2098226;28;30977;-73
2022/11/26 00:09:44;;;;;;;;;;;;;;;2.08;100.00;102182.47;2098075;28;30392;-73
2022/11/26 00:10:50;;;;;;;;;;;;;;;2.06;100.00;102176.25;2098358;28;33500;-73
2022/11/26 00:11:51;;;;;;;;;;;;;;;2.08;100.00;102182.47;2097656;28;37799;-73
2022/11/26 00:12:54;;;;;;;;;;;;;;;2.08;100.00;102174.56;2098168;28;37703;-73
2022/11/26 00:13:55;;;;;;;;;;;;;;;2.03;100.00;102186.75;2097555;28;30450;-73
2022/11/26 00:14:58;;;;;;;;;;;;;;;2.01;100.00;102184.06;2098863;28;20762;-73
2022/11/26 00:16:00;;;;;;;;;;;;;;;1.99;100.00;102184.84;2097868;28;36072;-73
2022/11/26 00:17:01;;;;;;;;;;;;;;;1.98;100.00;102183.06;2097788;28;39084;-73
2022/11/26 00:18:03;;;;;;;;;;;;;;;1.99;100.00;102184.84;2098014;28;29639;-73
2022/11/26 00:19:05;;;;;;;;;;;;;;;2.02;100.00;102184.94;2098528;28;37069;-73
2022/11/26 00:20:07;;;;;;;;;;;;;;;2.00;100.00;102186.63;2097619;28;37270;-73
2022/11/26 00:21:20;;;;;;;;;;;;;;;2.16;100.00;102188.91;2098286;28;36231;-73
2022/11/26 00:22:29;;;;;;;;;;;;;;;2.03;100.00;102179.72;2097992;28;40692;-73
2022/11/26 00:23:30;;;;;;;;;;;;;;;2.16;100.00;102188.03;2098010;28;32541;-73
2022/11/26 00:24:32;;;;;;;;;;;;;;;2.11;100.00;102177.31;2097614;28;34650;-73
2022/11/26 00:25:47;;;;;;;;;;;;;;;2.06;100.00;102181.53;2098136;28;36002;-73
2022/11/26 00:26:48;;;;;;;;;;;;;;;2.07;100.00;102181.59;2098325;28;30054;-73
2022/11/26 00:27:53;;;;;;;;;;;;;;;2.05;100.00;102195.63;2097207;28;26955;-72
2022/11/26 00:28:58;;;;;;;;;;;;;;;2.01;100.00;102189.34;2097175;28;32077;-73
2022/11/26 00:30:00;;;;;;;;;;;;;;;1.96;100.00;102195.31;2097398;28;37990;-73
2022/11/26 00:31:11;;;;;;;;;;;;;;;1.94;100.00;102194.34;2098249;28;36574;-73
2022/11/26 00:32:16;;;;;;;;;;;;;;;1.90;100.00;102188.97;2098039;28;30334;-73
2022/11/26 00:33:18;;;;;;;;;;;;;;;1.91;100.00;102198.69;2098842;28;19920;-73
2022/11/26 00:34:24;;;;;;;;;;;;;;;1.88;100.00;102195.97;2097552;28;19921;-73
2022/11/26 00:35:25;;;;;;;;;;;;;;;1.90;100.00;102191.63;2097712;28;30978;-72
2022/11/26 00:36:31;;;;;;;;;;;;;;;1.89;100.00;102200.38;2096885;28;37520;-73
2022/11/26 00:37:40;;;;;;;;;;;;;;;1.86;100.00;102194.09;2097980;28;20674;-74
2022/11/26 00:38:42;;;;;;;;;;;;;;;1.86;100.00;102200.28;2097324;28;31837;-73
2022/11/26 00:39:44;;;;;;;;;;;;;;;1.82;100.00;102202.78;2098226;28;28237;-72
2022/11/26 00:40:47;;;;;;;;;;;;;;;1.80;100.00;102197.44;2097522;28;32650;-73
2022/11/26 00:41:51;;;;;;;;;;;;;;;1.84;100.00;102201.97;2097718;28;39778;-72
2022/11/26 00:42:53;;;;;;;;;;;;;;;1.80;100.00;102204.47;2097603;28;31329;-73
2022/11/26 00:44:01;;;;;;;;;;;;;;;1.78;100.00;102204.41;2097713;28;37865;-72
2022/11/26 00:45:13;;;;;;;;;;;;;;;1.79;100.00;102205.31;2097150;28;37032;-72
2022/11/26 00:46:18;;;;;;;;;;;;;;;1.82;100.00;102208.06;2098049;28;32381;-72
2022/11/26 00:47:19;;;;;;;;;;;;;;;1.77;100.00;102205.25;2097297;28;37610;-73
2022/11/26 00:48:21;;;;;;;;;;;;;;;1.77;100.00;102210.53;2097747;28;35013;-72
2022/11/26 00:49:23;;;;;;;;;;;;;;;1.84;100.00;102211.66;2097705;28;34291;-72
2022/11/26 00:50:26;;;;;;;;;;;;;;;1.85;100.00;102209.06;2098118;28;30746;-72
2022/11/26 00:51:28;;;;;;;;;;;;;;;1.82;100.00;102208.94;2097886;28;24838;-73
2022/11/26 00:52:33;;;;;;;;;;;;;;;1.82;100.00;102216.88;2097633;28;37844;-73
2022/11/26 00:53:34;;;;;;;;;;;;;;;1.93;100.00;102217.22;2097988;28;36196;-73
2022/11/26 00:54:36;;;;;;;;;;;;;;;1.91;100.00;102218.91;2098750;28;19920;-73
2022/11/26 00:55:46;;;;;;;;;;;;;;;1.89;100.00;102224.16;2097955;28;33441;-73
2022/11/26 00:56:49;;;;;;;;;;;;;;;1.95;100.00;102219.91;2098250;28;30100;-72
2022/11/26 00:57:51;;;;;;;;;;;;;;;1.88;100.00;102226.72;2097471;28;31340;-73
2022/11/26 00:58:52;;;;;;;;;;;;;;;1.84;100.00;102225.72;2097336;28;37303;-73
2022/11/26 00:59:54;;;;;;;;;;;;;;;1.86;100.00;102225.78;2097854;28;32462;-73
2022/11/26 01:00:57;;;;;;;;;;;;;;;1.83;100.00;102231.88;2089479;28;32685;-73
2022/11/26 01:01:59;;;;;;;;;;;;;;;1.84;100.00;102232.78;2089414;28;29848;-72
2022/11/26 01:03:01;;;;;;;;;;;;;;;1.81;100.00;102235.28;2089399;28;31449;-72
2022/11/26 01:04:03;;;;;;;;;;;;;;;1.83;100.00;102237.16;2089168;28;34206;-72
2022/11/26 01:05:05;;;;;;;;;;;;;;;1.80;100.00;102237.03;2089735;28;23975;-73
2022/11/26 01:06:14;;;;;;;;;;;;;;;1.79;100.00;102242.28;2080988;28;19921;-72
2022/11/26 01:07:16;;;;;;;;;;;;;;;1.75;100.00;102243.91;2081497;28;38995;-72
2022/11/26 01:08:32;;;;;;;;;;;;;;;1.73;100.00;102239.44;2089778;28;20063;-72
2022/11/26 01:09:34;;;;;;;;;;;;;;;1.78;100.00;102248.41;2088823;28;38953;-73
2022/11/26 01:10:35;;;;;;;;;;;;;;;1.77;100.00;102249.25;2089463;28;28084;-73
2022/11/26 01:11:37;;;;;;;;;;;;;;;1.73;100.00;102244.72;2088971;28;35924;-73
2022/11/26 01:12:38;;;;;;;;;;;;;;;1.73;100.00;102242.97;2089120;28;39418;-75
2022/11/26 01:13:42;;;;;;;;;;;;;;;1.72;100.00;102251.72;2089799;28;19925;-74
2022/11/26 01:14:44;;;;;;;;;;;;;;;1.76;100.00;102248.34;2089168;28;37907;-72
2022/11/26 01:15:45;;;;;;;;;;;;;;;1.76;100.00;102250.06;2089524;28;30649;-73
2022/11/26 01:16:50;;;;;;;;;;;;;;;1.71;100.00;102249.94;2089640;28;20779;-72
2022/11/26 01:17:54;;;;;;;;;;;;;;;1.75;100.00;102249.19;2089595;28;32439;-73
2022/11/26 01:18:58;;;;;;;;;;;;;;;1.76;100.00;102250.06;2089182;28;30695;-72
2022/11/26 01:20:00;;;;;;;;;;;;;;;1.75;100.00;102253.59;2089074;28;37106;-73
2022/11/26 01:21:02;;;;;;;;;;;;;;;1.73;100.00;102253.53;2089326;28;33958;-72
2022/11/26 01:22:03;;;;;;;;;;;;;;;1.78;100.00;102253.69;2089203;28;36202;-72
2022/11/26 01:23:05;;;;;;;;;;;;;;;1.71;100.00;102252.59;2089166;28;32945;-72
2022/11/26 01:24:08;;;;;;;;;;;;;;;1.82;100.00;102258.22;2089786;28;19928;-75
2022/11/26 01:25:10;;;;;;;;;;;;;;;1.76;100.00;102256.28;2089275;28;36546;-74
2022/11/26 01:26:23;;;;;;;;;;;;;;;1.76;100.00;102258.91;2089107;28;29533;-75
2022/11/26 01:27:24;;;;;;;;;;;;;;;1.75;100.00;102261.50;2090217;28;19924;-74
2022/11/26 01:28:26;;;;;;;;;;;;;;;1.70;100.00;102262.22;2088717;28;25467;-74
2022/11/26 01:29:27;;;;;;;;;;;;;;;1.70;100.00;102262.22;2089290;28;33356;-74
2022/11/26 01:30:31;;;;;;;;;;;;;;;1.68;100.00;102268.31;2093747;28;32438;-74
2022/11/26 01:31:33;;;;;;;;;;;;;;;1.69;100.00;102265.72;2097535;28;38211;-74
2022/11/26 01:32:34;;;;;;;;;;;;;;;1.71;100.00;102268.41;2097668;28;28709;-75
2022/11/26 01:33:36;;;;;;;;;;;;;;;1.66;100.00;102270.00;2097329;28;33979;-75
2022/11/26 01:34:37;;;;;;;;;;;;;;;1.60;100.00;102270.69;2097261;28;36831;-74
2022/11/26 01:35:39;;;;;;;;;;;;;;;1.65;100.00;102268.19;2098308;28;20829;-74
2022/11/26 01:36:43;;;;;;;;;;;;;;;1.71;100.00;102269.31;2097881;28;19951;-74
2022/11/26 01:37:45;;;;;;;;;;;;;;;1.64;100.00;102271.69;2098412;28;33237;-75
2022/11/26 01:38:51;;;;;;;;;;;;;;;1.60;100.00;102272.41;2098176;28;19920;-75
2022/11/26 01:39:52;;;;;;;;;;;;;;;1.56;100.00;102273.16;2097668;28;41842;-74
2022/11/26 01:41:01;;;;;;;;;;;;;;;1.57;100.00;102269.69;2097413;28;34356;-72
2022/11/26 01:42:15;;;;;;;;;;;;;;;1.60;100.00;102275.03;2097794;28;34989;-74
2022/11/26 01:43:25;;;;;;;;;;;;;;;1.63;100.00;102281.31;2096646;28;39782;-74
2022/11/26 01:44:33;;;;;;;;;;;;;;;1.67;100.00;102279.69;2097468;28;35019;-75
2022/11/26 01:45:34;;;;;;;;;;;;;;;1.62;100.00;102281.31;2097553;28;32154;-74
2022/11/26 01:46:37;;;;;;;;;;;;;;;1.56;100.00;102283.69;2097648;28;34003;-74
2022/11/26 01:47:39;;;;;;;;;;;;;;;1.55;100.00;102285.47;2097511;28;30687;-74
2022/11/26 01:48:41;;;;;;;;;;;;;;;1.52;100.00;102278.31;2097283;28;40033;-75
2022/11/26 01:50:21;;;;;;;;;;;;;;;1.49;100.00;102285.22;2096761;28;38873;-74
2022/11/26 01:51:27;;;;;;;;;;;;;;;1.48;100.00;102280.81;2097233;28;32301;-75
2022/11/26 01:52:28;;;;;;;;;;;;;;;1.47;100.00;102287.84;2097022;28;35388;-75
2022/11/26 01:53:51;;;;;;;;;;;;;;;1.49;100.00;102283.50;2096497;28;35425;-75
2022/11/26 01:54:53;;;;;;;;;;;;;;;1.48;100.00;102284.31;2097549;28;34632;-74
2022/11/26 01:55:59;;;;;;;;;;;;;;;1.48;100.00;102284.31;2097753;28;19921;-75
2022/11/26 01:57:23;;;;;;;;;;;;;;;1.49;100.00;102282.56;2097700;28;33234;-74
2022/11/26 01:58:32;;;;;;;;;;;;;;;1.46;100.00;102287.78;2088759;28;19924;-74
2022/11/26 01:59:42;;;;;;;;;;;;;;;1.53;100.00;102290.69;2090448;28;30177;-74
2022/11/26 02:00:43;;;;;;;;;;;;;;;1.46;100.00;102293.94;2097285;28;29922;-74
2022/11/26 02:01:48;;;;;;;;;;;;;;;1.45;100.00;102297.41;2097333;28;31408;-74
2022/11/26 02:02:49;;;;;;;;;;;;;;;1.45;100.00;102292.13;2097927;28;32021;-74
2022/11/26 02:03:54;;;;;;;;;;;;;;;1.43;100.00;102293.81;2097642;28;19925;-74
2022/11/26 02:05:06;;;;;;;;;;;;;;;1.40;100.00;102293.72;2097587;28;32344;-73
2022/11/26 02:06:14;;;;;;;;;;;;;;;1.41;100.00;102295.50;2097434;28;31515;-74
2022/11/26 02:07:16;;;;;;;;;;;;;;;1.52;100.00;102299.41;2097451;28;33167;-74
2022/11/26 02:08:18;;;;;;;;;;;;;;;1.40;100.00;102296.38;2097310;28;32298;-74
2022/11/26 02:09:22;;;;;;;;;;;;;;;1.39;100.00;102297.19;2097549;28;29978;-73
2022/11/26 02:10:23;;;;;;;;;;;;;;;1.35;100.00;102295.28;2096927;28;38474;-74
2022/11/26 02:11:26;;;;;;;;;;;;;;;1.37;100.00;102303.28;2097264;28;35830;-74
2022/11/26 02:12:27;;;;;;;;;;;;;;;1.35;100.00;102300.56;2096732;28;37636;-74
2022/11/26 02:13:29;;;;;;;;;;;;;;;1.35;100.00;102300.56;2097160;28;37192;-74
2022/11/26 02:14:35;;;;;;;;;;;;;;;1.32;100.00;102313.63;2096867;28;34254;-74
2022/11/26 02:15:52;;;;;;;;;;;;;;;1.35;100.00;102311.13;2097447;28;35718;-74
2022/11/26 02:17:24;;;;;;;;;;;;;;;1.40;100.00;102309.56;2097333;28;35587;-74
2022/11/26 02:18:34;;;;;;;;;;;;;;;1.47;100.00;102315.94;2097175;28;32580;-74
2022/11/26 02:20:09;;;;;;;;;;;;;;;1.46;100.00;102307.13;2097202;28;38818;-74
2022/11/26 02:21:24;;;;;;;;;;;;;;;1.48;100.00;102313.34;2096491;28;35901;-74
2022/11/26 02:22:56;;;;;;;;;;;;;;;1.55;100.00;102319.78;2096640;28;42609;-74
2022/11/26 02:24:16;;;;;;;;;;;;;;;1.51;100.00;102313.47;2097994;28;20102;-74
2022/11/26 02:25:52;;;;;;;;;;;;;;;1.47;100.00;102310.66;2096906;28;38001;-74
2022/11/26 02:27:36;;;;;;;;;;;;;;;1.47;100.00;102314.22;2097026;28;37414;-74
2022/11/26 02:29:17;;;;;;;;;;;;;;;1.45;100.00;102304.44;2054862;28;35065;-74
2022/11/26 02:30:19;;;;;;;;;;;;;;;1.39;100.00;102312.13;2055239;28;38612;-74
2022/11/26 02:31:34;;;;;;;;;;;;;;;1.37;100.00;102314.72;2087039;28;33922;-74
2022/11/26 02:33:03;;;;;;;;;;;;;;;1.39;100.00;102312.13;2097655;28;19987;-74
2022/11/26 02:34:10;;;;;;;;;;;;;;;1.34;100.00;102314.59;2097105;28;41091;-74
2022/11/26 02:35:21;;;;;;;;;;;;;;;1.33;100.00;102318.97;2097484;28;19951;-74
2022/11/26 02:37:00;;;;;;;;;;;;;;;1.30;100.00;102323.25;2097025;28;42141;-74
2022/11/26 02:38:08;;;;;;;;;;;;;;;1.27;100.00;102323.13;2072851;28;32284;-75
2022/11/26 02:39:16;;;;;;;;;;;;;;;1.26;100.00;102323.97;2097289;28;37086;-74
2022/11/26 02:40:18;;;;;;;;;;;;;;;1.26;100.00;102321.34;2096918;28;31963;-74
2022/11/26 02:41:19;;;;;;;;;;;;;;;1.31;100.00;102327.66;2097010;28;32758;-74
2022/11/26 02:42:26;;;;;;;;;;;;;;;1.26;100.00;102327.50;2096950;28;41918;-74
2022/11/26 02:43:29;;;;;;;;;;;;;;;1.24;100.00;102333.56;2096450;28;35383;-75
2022/11/26 02:44:41;;;;;;;;;;;;;;;1.27;100.00;102342.47;2096910;28;33319;-74
2022/11/26 02:45:49;;;;;;;;;;;;;;;1.20;100.00;102340.44;2096861;28;31258;-74
2022/11/26 02:47:16;;;;;;;;;;;;;;;1.17;100.00;102336.78;2097237;28;35060;-75
2022/11/26 02:48:27;;;;;;;;;;;;;;;1.10;100.00;102331.31;2088154;28;20871;-74
2022/11/26 02:49:32;;;;;;;;;;;;;;;1.14;100.00;102333.22;2097141;28;34615;-74
2022/11/26 02:50:45;;;;;;;;;;;;;;;1.10;100.00;102338.31;2097079;28;38109;-74
2022/11/26 02:51:53;;;;;;;;;;;;;;;1.20;100.00;102332.53;2096002;28;33007;-75
2022/11/26 02:52:57;;;;;;;;;;;;;;;1.21;100.00;102329.06;2096571;28;35753;-74
2022/11/26 02:54:00;;;;;;;;;;;;;;;1.18;100.00;102338.59;2096582;28;37741;-74
2022/11/26 02:55:04;;;;;;;;;;;;;;;1.23;100.00;102327.38;2097331;28;32211;-73
2022/11/26 02:56:14;;;;;;;;;;;;;;;1.28;100.00;102331.09;2096874;28;31198;-75
2022/11/26 02:57:19;;;;;;;;;;;;;;;1.24;100.00;102330.91;2097920;28;32472;-74
2022/11/26 02:58:20;;;;;;;;;;;;;;;1.27;100.00;102328.41;2096701;28;32508;-74
2022/11/26 02:59:22;;;;;;;;;;;;;;;1.24;100.00;102334.47;2097027;28;19920;-74
2022/11/26 03:00:24;;;;;;;;;;;;;;;1.31;100.00;102331.22;2096343;28;34569;-74
2022/11/26 03:01:36;;;;;;;;;;;;;;;1.33;100.00;102329.53;2096738;28;35729;-75
2022/11/26 03:02:56;;;;;;;;;;;;;;;1.29;100.00;102329.34;2096274;28;36851;-75
2022/11/26 03:04:02;;;;;;;;;;;;;;;1.33;100.00;102333.94;2096187;28;37622;-75
2022/11/26 03:05:06;;;;;;;;;;;;;;;1.32;100.00;102330.38;2097537;28;20287;-75
2022/11/26 03:06:11;;;;;;;;;;;;;;;1.38;100.00;102327.06;2096437;28;31972;-74
2022/11/26 03:07:13;;;;;;;;;;;;;;;1.36;100.00;102323.47;2096871;28;31144;-75
2022/11/26 03:08:18;;;;;;;;;;;;;;;1.38;100.00;102324.41;2096517;28;37388;-75
2022/11/26 03:09:22;;;;;;;;;;;;;;;1.41;100.00;102334.19;2096841;28;32379;-75
2022/11/26 03:10:28;;;;;;;;;;;;;;;1.32;100.00;102324.19;2087550;28;33384;-75
2022/11/26 03:11:29;;;;;;;;;;;;;;;1.31;100.00;102325.03;2089003;28;32835;-74
2022/11/26 03:12:31;;;;;;;;;;;;;;;1.32;100.00;102330.38;2096310;28;39708;-75
2022/11/26 03:13:32;;;;;;;;;;;;;;;1.29;100.00;102326.72;2096491;28;37404;-74
2022/11/26 03:14:34;;;;;;;;;;;;;;;1.24;100.00;102329.19;2097001;28;29350;-75
2022/11/26 03:15:35;;;;;;;;;;;;;;;1.19;100.00;102325.47;2096726;28;38166;-75
2022/11/26 03:16:37;;;;;;;;;;;;;;;1.20;100.00;102331.66;2096964;28;20771;-75
2022/11/26 03:17:39;;;;;;;;;;;;;;;1.20;100.00;102327.25;2097553;28;30491;-75
2022/11/26 03:18:40;;;;;;;;;;;;;;;1.17;100.00;102331.53;2096678;28;37023;-75
2022/11/26 03:19:43;;;;;;;;;;;;;;;1.11;100.00;102325.19;2097633;28;19979;-75
2022/11/26 03:20:44;;;;;;;;;;;;;;;1.08;100.00;102327.72;2096718;28;38163;-75
2022/11/26 03:21:46;;;;;;;;;;;;;;;1.08;100.00;102329.47;2097121;28;20006;-75
2022/11/26 03:22:50;;;;;;;;;;;;;;;1.07;100.00;102328.53;2097131;28;21017;-75
2022/11/26 03:23:52;;;;;;;;;;;;;;;1.08;100.00;102332.97;2096451;28;34987;-75
2022/11/26 03:24:53;;;;;;;;;;;;;;;1.05;100.00;102332.84;2097077;28;32870;-75
2022/11/26 03:25:55;;;;;;;;;;;;;;;1.02;100.00;102332.72;2097138;28;31698;-74
2022/11/26 03:26:57;;;;;;;;;;;;;;;1.00;100.00;102334.41;2096768;28;31770;-75
2022/11/26 03:27:58;;;;;;;;;;;;;;;1.03;100.00;102333.66;2097599;28;20801;-75
2022/11/26 03:29:02;;;;;;;;;;;;;;;1.02;100.00;102329.19;2096781;28;20801;-75
2022/11/26 03:30:07;;;;;;;;;;;;;;;1.00;100.00;102333.53;2097210;28;26434;-75
2022/11/26 03:31:08;;;;;;;;;;;;;;;0.98;100.00;102330.81;2096923;28;28259;-75
2022/11/26 03:32:10;;;;;;;;;;;;;;;0.95;100.00;102325.41;2096008;28;38274;-75
2022/11/26 03:33:11;;;;;;;;;;;;;;;0.96;100.00;102324.59;2095921;28;35719;-75
2022/11/26 03:34:13;;;;;;;;;;;;;;;1.01;100.00;102325.69;2096461;28;39255;-75
2022/11/26 03:35:17;;;;;;;;;;;;;;;1.02;100.00;102326.56;2088181;28;32054;-75
2022/11/26 03:36:19;;;;;;;;;;;;;;;1.05;100.00;102322.31;2088416;28;30255;-75
2022/11/26 03:37:22;;;;;;;;;;;;;;;1.03;100.00;102323.09;2087717;28;34668;-75
2022/11/26 03:38:24;;;;;;;;;;;;;;;0.97;100.00;102326.41;2088382;28;31773;-75
2022/11/26 03:39:26;;;;;;;;;;;;;;;0.93;100.00;102319.19;2096975;28;32211;-75
2022/11/26 03:40:27;;;;;;;;;;;;;;;0.88;100.00;102324.31;2095723;28;25921;-75
2022/11/26 03:41:29;;;;;;;;;;;;;;;0.85;100.00;102332.09;2096616;28;19924;-75
2022/11/26 03:42:30;;;;;;;;;;;;;;;0.81;100.00;102329.25;2096204;28;32887;-75
2022/11/26 03:43:32;;;;;;;;;;;;;;;0.78;100.00;102327.41;2096936;28;31971;-75
2022/11/26 03:44:33;;;;;;;;;;;;;;;0.74;100.00;102323.75;2096514;28;34887;-75
2022/11/26 03:45:35;;;;;;;;;;;;;;;0.74;100.00;102322.88;2096425;28;40024;-75
2022/11/26 03:46:38;;;;;;;;;;;;;;;0.81;100.00;102323.97;2097189;28;19921;-75
2022/11/26 03:47:40;;;;;;;;;;;;;;;0.93;100.00;102328.03;2096655;28;37534;-76
2022/11/26 03:48:41;;;;;;;;;;;;;;;0.96;100.00;102321.97;2097119;28;27655;-75
2022/11/26 03:49:43;;;;;;;;;;;;;;;0.98;100.00;102332.56;2087956;28;31756;-75
2022/11/26 03:50:47;;;;;;;;;;;;;;;0.95;100.00;102325.41;2087781;28;34617;-75
2022/11/26 03:51:49;;;;;;;;;;;;;;;0.94;100.00;102324.53;2096603;28;36226;-75
2022/11/26 03:52:50;;;;;;;;;;;;;;;0.94;100.00;102328.91;2096567;28;30923;-76
2022/11/26 03:53:52;;;;;;;;;;;;;;;0.92;100.00;102333.22;2096928;28;33353;-75
2022/11/26 03:54:53;;;;;;;;;;;;;;;0.90;100.00;102338.44;2096678;28;34024;-75
2022/11/26 03:55:55;;;;;;;;;;;;;;;0.91;100.00;102342.88;2096252;28;33938;-74
2022/11/26 03:56:56;;;;;;;;;;;;;;;0.88;100.00;102336.56;2095862;28;37312;-75
2022/11/26 03:57:58;;;;;;;;;;;;;;;0.89;100.00;102338.38;2096635;28;36933;-75
2022/11/26 03:59:02;;;;;;;;;;;;;;;0.90;100.00;102337.56;2096398;28;31163;-75
2022/11/26 04:00:05;;;;;;;;;;;;;;;0.96;100.00;102340.41;2096639;28;36722;-74
2022/11/26 04:01:09;;;;;;;;;;;;;;;1.04;100.00;102339.00;2096974;28;19920;-75
2022/11/26 04:02:10;;;;;;;;;;;;;;;1.07;100.00;102339.09;2096679;28;29607;-75
2022/11/26 04:03:12;;;;;;;;;;;;;;;0.98;100.00;102344.00;2095537;28;35999;-75
2022/11/26 04:04:13;;;;;;;;;;;;;;;1.06;100.00;102339.94;2096606;28;32572;-75
2022/11/26 04:05:18;;;;;;;;;;;;;;;0.99;100.00;102343.19;2096449;28;39178;-75
2022/11/26 04:06:19;;;;;;;;;;;;;;;1.00;100.00;102347.59;2096780;28;30448;-75
2022/11/26 04:07:21;;;;;;;;;;;;;;;0.99;100.00;102350.16;2096229;28;36476;-75
2022/11/26 04:08:23;;;;;;;;;;;;;;;1.02;100.00;102351.19;2095932;28;38036;-75
2022/11/26 04:09:24;;;;;;;;;;;;;;;1.10;100.00;102349.75;2096571;28;20781;-75
2022/11/26 04:10:28;;;;;;;;;;;;;;;1.03;100.00;102354.75;2097277;28;19920;-75
2022/11/26 04:11:30;;;;;;;;;;;;;;;1.06;100.00;102361.03;2096458;28;36234;-75
2022/11/26 04:12:31;;;;;;;;;;;;;;;1.07;100.00;102365.47;2096467;28;35955;-75
2022/11/26 04:13:33;;;;;;;;;;;;;;;1.05;100.00;102364.50;2096020;28;34198;-75
2022/11/26 04:14:34;;;;;;;;;;;;;;;1.05;100.00;102364.50;2096437;28;41206;-75
2022/11/26 04:15:36;;;;;;;;;;;;;;;1.06;100.00;102376.88;2096466;28;31944;-74
2022/11/26 04:16:38;;;;;;;;;;;;;;;1.10;100.00;102376.13;2096961;28;37160;-74
2022/11/26 04:17:42;;;;;;;;;;;;;;;1.22;100.00;102372.16;2087953;28;20733;-74
2022/11/26 04:18:44;;;;;;;;;;;;;;;1.21;100.00;102376.56;2088463;28;31260;-75
2022/11/26 04:19:45;;;;;;;;;;;;;;;1.40;100.00;102371.97;2096220;28;40593;-74
2022/11/26 04:20:47;;;;;;;;;;;;;;;1.58;100.00;102371.75;2096509;28;28716;-75
2022/11/26 04:21:53;;;;;;;;;;;;;;;1.58;100.00;102372.69;2096767;28;19925;-75
2022/11/26 04:22:54;;;;;;;;;;;;;;;1.61;100.00;102377.16;2096676;28;34779;-75
2022/11/26 04:23:58;;;;;;;;;;;;;;;1.75;100.00;102375.03;2097407;28;20058;-75
2022/11/26 04:25:00;;;;;;;;;;;;;;;1.81;100.00;102375.25;2096651;28;32292;-74
2022/11/26 04:26:01;;;;;;;;;;;;;;;1.82;100.00;102382.34;2096271;28;35066;-75
2022/11/26 04:27:03;;;;;;;;;;;;;;;1.97;100.00;102381.97;2096268;28;35716;-75
2022/11/26 04:28:04;;;;;;;;;;;;;;;2.00;100.00;102390.03;2096185;28;41389;-74
2022/11/26 04:29:06;;;;;;;;;;;;;;;1.97;100.00;102382.88;2096398;28;29653;-74
2022/11/26 04:30:08;;;;;;;;;;;;;;;2.00;100.00;102383.00;2096075;28;37160;-75
2022/11/26 04:31:10;;;;;;;;;;;;;;;2.06;100.00;102393.78;2096677;28;32432;-74
2022/11/26 04:32:12;;;;;;;;;;;;;;;2.08;100.00;102381.53;2095990;28;35708;-74
2022/11/26 04:33:13;;;;;;;;;;;;;;;2.17;100.00;102387.97;2086977;28;35830;-75
2022/11/26 04:34:15;;;;;;;;;;;;;;;2.15;100.00;102398.47;2087716;28;30998;-75
2022/11/26 04:35:16;;;;;;;;;;;;;;;2.16;100.00;102392.34;2095712;28;39463;-75
2022/11/26 04:36:18;;;;;;;;;;;;;;;2.16;100.00;102399.41;2096154;28;19925;-75
2022/11/26 04:37:19;;;;;;;;;;;;;;;2.26;100.00;102399.78;2096201;28;33831;-75
2022/11/26 04:38:21;;;;;;;;;;;;;;;2.23;100.00;102402.28;2096179;28;32480;-75
2022/11/26 04:39:26;;;;;;;;;;;;;;;2.24;100.00;102401.47;2096254;28;36309;-75
2022/11/26 04:40:27;;;;;;;;;;;;;;;2.24;100.00;102400.53;2095523;28;35034;-76
2022/11/26 04:41:29;;;;;;;;;;;;;;;2.23;100.00;102398.75;2087790;28;31817;-75
2022/11/26 04:42:34;;;;;;;;;;;;;;;2.29;100.00;102399.84;2087860;28;20627;-75
2022/11/26 04:43:35;;;;;;;;;;;;;;;2.28;100.00;102400.72;2096496;28;35345;-75
2022/11/26 04:44:37;;;;;;;;;;;;;;;2.32;100.00;102407.00;2095773;28;35326;-76
2022/11/26 04:45:38;;;;;;;;;;;;;;;2.29;100.00;102407.78;2096728;28;35956;-76
2022/11/26 04:46:40;;;;;;;;;;;;;;;2.35;100.00;102406.19;2096287;28;34603;-76
2022/11/26 04:47:42;;;;;;;;;;;;;;;2.31;100.00;102404.31;2096330;28;35770;-75
2022/11/26 04:48:43;;;;;;;;;;;;;;;2.33;100.00;102407.91;2095854;28;32557;-76
2022/11/26 04:49:45;;;;;;;;;;;;;;;2.34;100.00;102404.44;2096482;28;35172;-76
2022/11/26 04:50:48;;;;;;;;;;;;;;;2.34;100.00;102401.78;2096103;28;35146;-76
2022/11/26 04:51:49;;;;;;;;;;;;;;;2.40;100.00;102412.56;2096646;28;39880;-76
2022/11/26 04:52:53;;;;;;;;;;;;;;;2.39;100.00;102411.66;2098225;28;20762;-77
2022/11/26 04:53:55;;;;;;;;;;;;;;;2.38;100.00;102415.13;2097962;28;32778;-76
2022/11/26 04:54:56;;;;;;;;;;;;;;;2.40;100.00;102409.91;2097634;28;30657;-76
2022/11/26 04:55:58;;;;;;;;;;;;;;;2.36;100.00;102408.91;2097456;28;35590;-75
2022/11/26 04:57:00;;;;;;;;;;;;;;;2.43;100.00;102410.03;2097453;28;37731;-75
2022/11/26 04:58:01;;;;;;;;;;;;;;;2.40;100.00;102416.09;2097858;28;35573;-75
2022/11/26 04:59:03;;;;;;;;;;;;;;;2.38;100.00;102411.59;2096926;28;36315;-76
2022/11/26 05:00:05;;;;;;;;;;;;;;;2.42;100.00;102414.41;2097906;28;36890;-76
2022/11/26 05:01:07;;;;;;;;;;;;;;;2.38;100.00;102414.25;2097294;28;35664;-75
2022/11/26 05:02:09;;;;;;;;;;;;;;;2.40;100.00;102409.91;2097582;28;39941;-76
2022/11/26 05:03:13;;;;;;;;;;;;;;;2.38;100.00;102415.13;2097451;28;36259;-76
2022/11/26 05:04:14;;;;;;;;;;;;;;;2.41;100.00;102417.00;2098361;28;20201;-76
2022/11/26 05:05:17;;;;;;;;;;;;;;;2.42;100.00;102413.50;2098331;28;20785;-77
2022/11/26 05:06:18;;;;;;;;;;;;;;;2.40;100.00;102417.84;2097774;28;40791;-76
2022/11/26 05:07:20;;;;;;;;;;;;;;;2.38;100.00;102424.81;2097651;28;32812;-75
2022/11/26 05:08:21;;;;;;;;;;;;;;;2.39;100.00;102421.34;2098421;28;29985;-76
2022/11/26 05:09:26;;;;;;;;;;;;;;;2.37;100.00;102425.66;2097918;28;19932;-78
2022/11/26 05:10:27;;;;;;;;;;;;;;;2.36;100.00;102423.88;2097532;28;42021;-77
2022/11/26 05:11:29;;;;;;;;;;;;;;;2.36;100.00;102423.88;2097547;28;36684;-75
2022/11/26 05:12:31;;;;;;;;;;;;;;;2.33;100.00;102429.94;2096992;28;34749;-75
2022/11/26 05:13:32;;;;;;;;;;;;;;;2.32;100.00;102425.50;2096633;28;38130;-74
2022/11/26 05:14:34;;;;;;;;;;;;;;;2.35;100.00;102432.63;2097427;28;30061;-76
2022/11/26 05:15:35;;;;;;;;;;;;;;;2.33;100.00;102429.03;2097620;28;30985;-75
2022/11/26 05:16:37;;;;;;;;;;;;;;;2.33;100.00;102434.31;2097714;28;36389;-75
2022/11/26 05:17:38;;;;;;;;;;;;;;;2.34;100.00;102438.78;2088141;28;35167;-75
2022/11/26 05:18:40;;;;;;;;;;;;;;;2.34;100.00;102436.13;2088878;28;38318;-74
2022/11/26 05:19:42;;;;;;;;;;;;;;;2.33;100.00;102443.16;2096939;28;36990;-75
2022/11/26 05:20:43;;;;;;;;;;;;;;;2.33;100.00;102442.25;2097309;28;33407;-75
2022/11/26 05:21:45;;;;;;;;;;;;;;;2.32;100.00;102438.72;2097859;28;27463;-75
2022/11/26 05:22:46;;;;;;;;;;;;;;;2.31;100.00;102443.94;2097315;28;41138;-75
2022/11/26 05:23:48;;;;;;;;;;;;;;;2.34;100.00;102442.31;2097429;28;30466;-75
2022/11/26 05:24:49;;;;;;;;;;;;;;;2.32;100.00;102435.19;2097884;28;31651;-74
2022/11/26 05:25:51;;;;;;;;;;;;;;;2.32;100.00;102445.75;2097535;28;35723;-75
2022/11/26 05:26:53;;;;;;;;;;;;;;;2.35;100.00;102440.56;2097938;28;19924;-74
2022/11/26 05:27:57;;;;;;;;;;;;;;;2.32;100.00;102440.47;2097059;28;35030;-75
2022/11/26 05:28:59;;;;;;;;;;;;;;;2.32;100.00;102437.84;2097895;28;30247;-75
2022/11/26 05:30:03;;;;;;;;;;;;;;;2.31;100.00;102442.19;2097802;28;31301;-75
2022/11/26 05:31:05;;;;;;;;;;;;;;;2.31;100.00;102436.03;2096808;28;40725;-75